TRINITY LAKE (CLE)

Elevation: 2370' · TRINITY R basin · Operator: US Bureau of Reclamation

Provisional data, subject to change.
Query executed Tuesday at 5:06:56   clock

Select a sensor type for a plot of data.
Note: Reservoir Flows are daily averages.

Earlier

Date RES ELE    STORAGE    RES CHG    OUTFLOW    INFLOW    EVAP    FNF    RIV REL    PPT INC    SPILL    DIS PWR   
 FEET   AF   AF   CFS   CFS   CFS   CFS   CFS   INCHES   CFS   CFS  
03/02/2015 2271.12 1149601 1575 380 1206 32 1206 0 0.00 0 380
03/03/2015 2271.26 1150981 1380 374 1093 23 1093 0 0.00 0 374
03/04/2015 2271.40 1152362 1381 381 1094 17 1094 0 0.00 0 381
03/05/2015 2271.54 1153742 1380 301 1023 26 1023 0 0.00 0 301
03/06/2015 2271.61 1154432 690 314 691 29 985 e 0 0.00 0 314
03/07/2015 2271.61 1154432 0 311 340 29 975 e 0 0.00 0 311
03/08/2015 2271.61 1154432 0 302 308 6 965 e 0 0.00 0 302
03/09/2015 2272.07 1158972 4540 184 2534 61 948 e 0 0.00 0 184
03/10/2015 2272.17 1159964 992 301 836 35 1011 e 0 0.00 0 301
03/11/2015 2272.34 1161651 1687 304 1158 3 1011 e 0 0.14 0 304
03/12/2015 2272.50 1163239 1588 304 1111 6 1111 0 0.20 0 304
03/13/2015 2272.61 1164330 1091 305 881 26 1156 e 0 0.00 0 305
03/14/2015 2272.82 1166414 2084 104 1178 23 1178 0 0.00 0 104
03/15/2015 2273.04 1168599 2185 322 1430 6 1156 e 0 0.07 0 322
03/16/2015 2273.26 1170796 2197 244 1367 15 1367 0 0.34 0 244
03/17/2015 2273.43 1172494 1698 300 1174 18 1174 0 0.00 0 300
03/18/2015 2273.58 1173992 1498 316 1115 44 1115 0 0.00 0 316
03/19/2015 2273.72 1175390 1398 293 1007 9 1007 0 0.00 0 293
03/20/2015 2273.84 1176588 1198 300 933 29 933 0 0.00 0 300
03/21/2015 2273.97 1177886 1298 315 990 21 990 0 0.00 0 315
03/22/2015 2274.10 1179191 1305 300 1008 50 1008 0 0.03 0 300
03/23/2015 2274.24 1180598 1407 297 1030 24 1030 0 0.25 0 297
03/24/2015 2274.41 1182307 1709 296 1185 27 1185 0 0.17 0 296
03/25/2015 2274.57 1183915 1608 303 1120 6 1120 0 0.00 0 303
03/26/2015 2274.65 1184719 804 801 1209 3 1209 0 0.00 0 801
03/27/2015 2274.72 1185422 703 489 917 74 917 0 0.00 0 489
03/28/2015 2274.89 1187131 1709 245 1163 56 1163 0 0.00 0 245
03/29/2015 2275.03 1188539 1408 294 1060 56 1060 0 0.00 0 294
03/30/2015 2275.14 1189652 1113 298 915 56 -- 0 0.00 0 298
03/31/2015 -- -- -- -- -- -- -- -- -- -- --

Later | Latest

Warning! This data is preliminary and subject to revision.

Show CLE Map | Plot CLE Data | 1 Month CLE Data | Real-Time CLE Data | CLE Info